createdAt,value
2023-03-08T00:00:17.614Z,99493.84
2023-03-08T00:02:44.622Z,99483.78
2023-03-08T00:05:11.377Z,99486.31
2023-03-08T00:07:38.132Z,99487.16
2023-03-08T00:10:05.407Z,99478.78
2023-03-08T00:12:31.824Z,99482.56
2023-03-08T00:14:58.234Z,99479.84
2023-03-08T00:17:24.691Z,99478.34
2023-03-08T00:19:51.929Z,99493.03
2023-03-08T00:22:18.303Z,99491.53
2023-03-08T00:24:44.814Z,99483.59
2023-03-08T00:27:11.188Z,99484.00
2023-03-08T00:29:37.670Z,99476.88
2023-03-08T00:32:04.149Z,99477.06
2023-03-08T00:34:30.538Z,99476.22
2023-03-08T00:36:56.970Z,99475.59
2023-03-08T00:39:23.392Z,99474.75
2023-03-08T00:41:49.774Z,99476.63
2023-03-08T00:44:16.222Z,99479.56
2023-03-08T00:46:42.734Z,99470.56
2023-03-08T00:49:10.671Z,99476.19
2023-03-08T00:51:37.124Z,99467.19
2023-03-08T00:54:03.625Z,99459.88
2023-03-08T00:56:30.015Z,99465.31
2023-03-08T00:58:56.504Z,99467.19
2023-03-08T01:01:23.249Z,99465.13
2023-03-08T01:03:49.713Z,99466.16
2023-03-08T01:06:16.466Z,99458.00
2023-03-08T01:08:44.446Z,99463.25
2023-03-08T01:11:17.387Z,99470.34
2023-03-08T01:13:43.826Z,99458.84
2023-03-08T01:16:29.581Z,99456.31
2023-03-08T01:18:56.956Z,99449.84
2023-03-08T01:21:24.669Z,99446.28
2023-03-08T01:23:51.668Z,99446.09
2023-03-08T01:26:21.202Z,99433.13
2023-03-08T01:28:48.068Z,99433.13
2023-03-08T01:31:17.056Z,99431.06
2023-03-08T01:33:45.123Z,99427.28
2023-03-08T01:36:15.192Z,99419.09
2023-03-08T01:38:42.108Z,99417.03
2023-03-08T01:41:15.584Z,99418.91
2023-03-08T01:43:42.107Z,99405.50
2023-03-08T01:46:17.252Z,99404.47
2023-03-08T01:48:48.967Z,99402.78
2023-03-08T01:51:21.002Z,99407.38
2023-03-08T01:53:47.870Z,99401.53
2023-03-08T01:56:17.532Z,99384.59
2023-03-08T01:58:46.732Z,99382.91
2023-03-08T02:01:13.593Z,99380.00
2023-03-08T02:03:40.031Z,99379.16
2023-03-08T02:06:08.091Z,99377.47
2023-03-08T02:08:34.782Z,99368.28
2023-03-08T02:11:01.895Z,99363.44
2023-03-08T02:13:28.641Z,99366.16
2023-03-08T02:15:57.305Z,99361.81
2023-03-08T02:18:23.914Z,99368.28
2023-03-08T02:20:50.282Z,99360.31
2023-03-08T02:23:20.910Z,99362.84
2023-03-08T02:25:57.091Z,99364.53
2023-03-08T02:28:25.416Z,99365.75
2023-03-08T02:30:52.326Z,99357.16
2023-03-08T02:33:19.045Z,99353.81
2023-03-08T02:35:46.335Z,99347.72
2023-03-08T02:38:14.943Z,99346.06
2023-03-08T02:40:41.555Z,99342.28
2023-03-08T02:43:08.313Z,99341.66
2023-03-08T02:45:35.193Z,99338.34
2023-03-08T02:48:02.976Z,99336.22
2023-03-08T02:50:29.523Z,99326.78
2023-03-08T02:52:55.919Z,99323.66
2023-03-08T02:55:22.403Z,99317.56
2023-03-08T02:57:48.852Z,99323.22
2023-03-08T03:00:15.743Z,99312.53
2023-03-08T03:02:42.117Z,99316.28
2023-03-08T03:05:13.009Z,99313.78
2023-03-08T03:07:42.116Z,99308.34
2023-03-08T03:10:11.174Z,99305.81
2023-03-08T03:12:37.705Z,99305.22
2023-03-08T03:15:05.868Z,99298.75
2023-03-08T03:17:32.955Z,99296.22
2023-03-08T03:19:59.608Z,99294.53
2023-03-08T03:22:26.007Z,99283.88
2023-03-08T03:24:52.712Z,99284.91
2023-03-08T03:27:19.499Z,99278.03
2023-03-08T03:29:45.973Z,99276.94
2023-03-08T03:32:12.435Z,99269.66
2023-03-08T03:34:39.153Z,99264.84
2023-03-08T03:37:05.656Z,99268.19
2023-03-08T03:39:36.270Z,99266.94
2023-03-08T03:42:02.671Z,99265.72
2023-03-08T03:44:30.569Z,99260.28
2023-03-08T03:46:57.576Z,99259.44
2023-03-08T03:49:24.012Z,99253.16
2023-03-08T03:51:50.362Z,99249.81
2023-03-08T03:54:16.745Z,99244.41
2023-03-08T03:56:43.141Z,99246.47
2023-03-08T03:59:09.737Z,99249.19
2023-03-08T04:01:36.135Z,99241.03
2023-03-08T04:04:02.665Z,99238.53
2023-03-08T04:06:31.759Z,99238.53
2023-03-08T04:09:00.800Z,99243.13
2023-03-08T04:11:31.749Z,99247.50
2023-03-08T04:13:58.154Z,99244.78
2023-03-08T04:16:30.225Z,99243.13
2023-03-08T04:18:59.545Z,99243.13
2023-03-08T04:21:26.494Z,99232.25
2023-03-08T04:23:53.439Z,99233.91
2023-03-08T04:26:20.829Z,99227.44
2023-03-08T04:28:47.304Z,99216.78
2023-03-08T04:31:16.645Z,99226.81
2023-03-08T04:33:43.326Z,99215.31
2023-03-08T04:36:10.437Z,99209.25
2023-03-08T04:38:36.827Z,99212.56
2023-03-08T04:41:11.721Z,99201.69
2023-03-08T04:43:44.894Z,99195.63
2023-03-08T04:46:11.791Z,99192.06
2023-03-08T04:48:38.500Z,99188.53
2023-03-08T04:51:07.184Z,99186.84
2023-03-08T04:53:34.461Z,99179.31
2023-03-08T04:56:00.928Z,99175.97
2023-03-08T04:58:29.008Z,99164.25
2023-03-08T05:00:55.924Z,99158.19
2023-03-08T05:03:22.532Z,99157.34
2023-03-08T05:05:51.432Z,99148.38
2023-03-08T05:08:18.947Z,99152.97
2023-03-08T05:11:04.691Z,99149.41
2023-03-08T05:13:34.731Z,99140.00
2023-03-08T05:16:02.484Z,99135.84
2023-03-08T05:18:29.467Z,99132.09
2023-03-08T05:21:07.759Z,99125.59
2023-03-08T05:23:34.489Z,99117.25
2023-03-08T05:26:02.891Z,99105.38
2023-03-08T05:28:31.684Z,99098.47
2023-03-08T05:31:24.691Z,99088.41
2023-03-08T05:33:51.782Z,99079.47
2023-03-08T05:36:18.942Z,99072.34
2023-03-08T05:38:45.796Z,99057.94
2023-03-08T05:41:14.653Z,99050.00
2023-03-08T05:43:41.616Z,99055.44
2023-03-08T05:46:13.847Z,99047.91
2023-03-08T05:48:40.831Z,99049.59
2023-03-08T05:51:10.027Z,99050.00
2023-03-08T05:53:37.171Z,99035.16
2023-03-08T05:56:14.943Z,99037.44
2023-03-08T05:58:43.576Z,99033.69
2023-03-08T06:01:11.734Z,99028.88
2023-03-08T06:03:38.199Z,99014.91
2023-03-08T06:06:04.958Z,99017.19
2023-03-08T06:08:31.486Z,99009.03
2023-03-08T06:10:57.877Z,99019.91
2023-03-08T06:13:24.379Z,99006.94
2023-03-08T06:15:59.415Z,99014.06
2023-03-08T06:18:27.453Z,99008.63
2023-03-08T06:21:10.680Z,99001.31
2023-03-08T06:23:37.617Z,98996.06
2023-03-08T06:26:05.882Z,98983.56
2023-03-08T06:28:32.423Z,98974.75
2023-03-08T06:30:59.159Z,98964.72
2023-03-08T06:33:28.626Z,98970.16
2023-03-08T06:36:00.352Z,98967.25
2023-03-08T06:38:30.155Z,98952.59
2023-03-08T06:40:57.625Z,98953.66
2023-03-08T06:43:24.582Z,98938.81
2023-03-08T06:45:51.669Z,98942.97
2023-03-08T06:48:18.170Z,98928.34
2023-03-08T06:50:44.910Z,98934.81
2023-03-08T06:53:11.942Z,98912.66
2023-03-08T06:55:39.396Z,98916.84
2023-03-08T06:58:06.245Z,98909.13
2023-03-08T07:00:32.885Z,98891.16
2023-03-08T07:02:59.831Z,98899.91
2023-03-08T07:05:26.379Z,98895.72
2023-03-08T07:07:52.970Z,98883.56
2023-03-08T07:10:21.061Z,98873.34
2023-03-08T07:12:51.185Z,98878.34
2023-03-08T07:15:20.381Z,98860.78
2023-03-08T07:17:48.260Z,98854.72
2023-03-08T07:20:16.808Z,98850.13
2023-03-08T07:22:44.901Z,98850.28
2023-03-08T07:25:12.953Z,98848.81
2023-03-08T07:27:39.409Z,98855.13
2023-03-08T07:30:09.628Z,98847.56
2023-03-08T07:32:37.284Z,98840.66
2023-03-08T07:35:04.027Z,98832.28
2023-03-08T07:37:30.456Z,98838.72
2023-03-08T07:39:56.890Z,98828.25
2023-03-08T07:42:23.316Z,98827.00
2023-03-08T07:44:49.852Z,98820.09
2023-03-08T07:47:16.298Z,98817.38
2023-03-08T07:49:42.735Z,98822.81
2023-03-08T07:52:09.106Z,98813.16
2023-03-08T07:54:35.510Z,98807.72
2023-03-08T07:57:02.893Z,98799.31
2023-03-08T07:59:29.398Z,98813.56
2023-03-08T08:01:55.986Z,98815.03
2023-03-08T08:04:23.341Z,98801.06
2023-03-08T08:06:50.214Z,98805.66
2023-03-08T08:09:17.883Z,98799.31
2023-03-08T08:11:44.342Z,98793.06
2023-03-08T08:14:10.878Z,98796.16
2023-03-08T08:16:37.357Z,98796.41
2023-03-08T08:19:03.837Z,98798.88
2023-03-08T08:21:30.262Z,98788.25
2023-03-08T08:23:57.925Z,98782.63
2023-03-08T08:26:24.347Z,98774.91
2023-03-08T08:28:53.299Z,98764.47
2023-03-08T08:31:25.158Z,98764.28
2023-03-08T08:33:52.524Z,98754.84
2023-03-08T08:36:20.537Z,98753.34
2023-03-08T08:38:47.815Z,98747.28
2023-03-08T08:41:16.167Z,98746.41
2023-03-08T08:43:43.285Z,98745.72
2023-03-08T08:46:10.465Z,98746.56
2023-03-08T08:48:38.509Z,98735.88
2023-03-08T08:51:06.982Z,98749.00
2023-03-08T08:53:34.144Z,98743.38
2023-03-08T08:56:25.552Z,98742.28
2023-03-08T08:58:53.424Z,98737.28
2023-03-08T09:01:31.500Z,98737.75
2023-03-08T09:03:58.057Z,98735.63
2023-03-08T09:06:25.541Z,98726.66
2023-03-08T09:08:54.883Z,98731.03
2023-03-08T09:11:22.010Z,98722.47
2023-03-08T09:13:48.472Z,98725.25
2023-03-08T09:16:35.312Z,98721.50
2023-03-08T09:19:03.880Z,98721.63
2023-03-08T09:21:31.501Z,98724.53
2023-03-08T09:24:04.215Z,98727.84
2023-03-08T09:26:31.693Z,98716.38
2023-03-08T09:28:59.456Z,98702.72
2023-03-08T09:31:26.110Z,98694.72
2023-03-08T09:33:52.542Z,98696.78
2023-03-08T09:36:19.610Z,98689.97
2023-03-08T09:38:50.255Z,98690.16
2023-03-08T09:41:19.786Z,98687.16
2023-03-08T09:44:13.932Z,98684.09
2023-03-08T09:46:46.275Z,98679.88
2023-03-08T09:49:18.950Z,98673.53
2023-03-08T09:51:50.922Z,98684.94
2023-03-08T09:54:23.249Z,98666.50
2023-03-08T09:56:51.891Z,98676.09
2023-03-08T09:59:33.460Z,98664.81
2023-03-08T10:02:10.160Z,98669.69
2023-03-08T10:05:20.814Z,98666.22
2023-03-08T10:08:13.409Z,98666.03
2023-03-08T10:11:00.198Z,98658.72
2023-03-08T10:13:41.607Z,98655.16
2023-03-08T10:16:20.992Z,98654.69
2023-03-08T10:18:52.742Z,98661.44
2023-03-08T10:21:23.542Z,98653.56
2023-03-08T10:24:00.485Z,98647.66
2023-03-08T10:26:27.772Z,98657.72
2023-03-08T10:28:54.822Z,98661.44
2023-03-08T10:31:27.588Z,98650.69
2023-03-08T10:34:02.433Z,98637.81
2023-03-08T10:36:28.941Z,98631.94
2023-03-08T10:39:07.590Z,98638.59
2023-03-08T10:41:59.487Z,98637.06
2023-03-08T10:44:36.470Z,98635.53
2023-03-08T10:47:23.695Z,98634.03
2023-03-08T10:50:03.887Z,98636.28
2023-03-08T10:52:30.756Z,98631.44
2023-03-08T10:55:09.216Z,98632.78
2023-03-08T10:57:36.213Z,98633.41
2023-03-08T11:00:26.032Z,98624.75
2023-03-08T11:03:03.193Z,98627.63
2023-03-08T11:05:29.684Z,98622.06
2023-03-08T11:07:58.546Z,98619.72
2023-03-08T11:10:30.219Z,98619.41
2023-03-08T11:13:18.181Z,98620.72
2023-03-08T11:15:56.048Z,98617.53
2023-03-08T11:18:50.599Z,98622.06
2023-03-08T11:21:55.413Z,98606.63
2023-03-08T11:25:01.900Z,98610.59
2023-03-08T11:28:06.500Z,98604.91
2023-03-08T11:30:44.605Z,98601.09
2023-03-08T11:33:48.489Z,98601.59
2023-03-08T11:36:26.880Z,98600.06
2023-03-08T11:39:12.122Z,98597.06
2023-03-08T11:41:53.132Z,98592.31
2023-03-08T11:44:34.167Z,98596.47
2023-03-08T11:47:06.615Z,98592.19
2023-03-08T11:49:48.428Z,98588.50
2023-03-08T11:52:37.853Z,98583.13
2023-03-08T11:55:20.651Z,98586.47
2023-03-08T11:57:54.615Z,98586.81
2023-03-08T12:00:35.177Z,98581.22
2023-03-08T12:03:11.596Z,98572.78
2023-03-08T12:05:42.900Z,98580.03
2023-03-08T12:08:22.520Z,98574.00
2023-03-08T12:11:01.847Z,98581.25
2023-03-08T12:14:10.300Z,98568.31
2023-03-08T12:16:51.591Z,98569.97
2023-03-08T12:19:44.988Z,98572.09
2023-03-08T12:22:22.871Z,98560.34
2023-03-08T12:25:26.495Z,98558.63
2023-03-08T12:27:59.953Z,98554.59
2023-03-08T12:30:59.489Z,98547.56
2023-03-08T12:33:28.908Z,98543.03
2023-03-08T12:35:58.998Z,98526.31
2023-03-08T12:38:30.533Z,98533.91
2023-03-08T12:40:57.095Z,98544.31
2023-03-08T12:43:23.470Z,98540.72
2023-03-08T12:46:10.998Z,98540.19
2023-03-08T12:48:47.078Z,98532.34
2023-03-08T12:51:14.068Z,98536.84
2023-03-08T12:53:52.503Z,98529.88
2023-03-08T12:56:47.893Z,98533.78
2023-03-08T12:59:14.245Z,98532.41
2023-03-08T13:01:43.401Z,98525.41
2023-03-08T13:04:39.793Z,98520.00
2023-03-08T13:07:20.541Z,98534.28
2023-03-08T13:10:04.607Z,98526.66
2023-03-08T13:12:50.263Z,98527.84
2023-03-08T13:15:22.041Z,98527.34
2023-03-08T13:18:03.724Z,98528.88
2023-03-08T13:20:41.465Z,98529.69
2023-03-08T13:23:11.160Z,98517.72
2023-03-08T13:26:03.812Z,98511.66
2023-03-08T13:28:46.598Z,98516.16
2023-03-08T13:31:20.968Z,98501.28
2023-03-08T13:33:49.115Z,98511.03
2023-03-08T13:36:21.913Z,98512.53
2023-03-08T13:39:17.744Z,98510.38
2023-03-08T13:41:46.516Z,98500.06
2023-03-08T13:44:18.146Z,98498.38
2023-03-08T13:46:46.416Z,98495.16
2023-03-08T13:49:17.778Z,98500.88
2023-03-08T13:51:47.933Z,98499.38
2023-03-08T13:54:17.668Z,98506.66
2023-03-08T13:56:44.140Z,98501.34
2023-03-08T13:59:20.362Z,98484.63
2023-03-08T14:01:51.769Z,98494.38
2023-03-08T14:04:24.566Z,98494.88
2023-03-08T14:06:53.549Z,98474.44
2023-03-08T14:09:20.409Z,98472.53
2023-03-08T14:11:55.815Z,98459.16
2023-03-08T14:14:32.603Z,98463.28
2023-03-08T14:17:00.100Z,98472.88
2023-03-08T14:19:30.140Z,98478.94
2023-03-08T14:22:03.612Z,98463.03
2023-03-08T14:24:35.825Z,98460.78
2023-03-08T14:27:14.189Z,98469.25
2023-03-08T14:29:42.398Z,98448.69
2023-03-08T14:32:11.896Z,98447.06
2023-03-08T14:34:39.543Z,98431.97
2023-03-08T14:37:11.793Z,98438.53
2023-03-08T14:39:42.890Z,98442.44
2023-03-08T14:42:30.108Z,98436.47
2023-03-08T14:44:59.884Z,98432.97
2023-03-08T14:47:29.702Z,98436.56
2023-03-08T14:49:59.498Z,98422.22
2023-03-08T14:52:29.159Z,98414.63
2023-03-08T14:54:55.668Z,98407.34
2023-03-08T14:57:28.074Z,98414.13
2023-03-08T15:00:02.352Z,98407.00
2023-03-08T15:02:28.787Z,98418.09
2023-03-08T15:04:55.188Z,98417.75
2023-03-08T15:07:23.874Z,98421.88
2023-03-08T15:09:51.744Z,98424.38
2023-03-08T15:12:18.348Z,98425.44
2023-03-08T15:14:44.948Z,98436.22
2023-03-08T15:17:11.346Z,98430.09
2023-03-08T15:19:37.745Z,98436.53
2023-03-08T15:22:06.228Z,98447.81
2023-03-08T15:24:32.709Z,98456.00
2023-03-08T15:26:59.137Z,98451.53
2023-03-08T15:29:31.609Z,98463.88
2023-03-08T15:31:58.823Z,98446.91
2023-03-08T15:34:28.050Z,98429.38
2023-03-08T15:36:55.054Z,98418.56
2023-03-08T15:39:21.651Z,98418.09
2023-03-08T15:41:48.377Z,98425.78
2023-03-08T15:44:14.862Z,98412.84
2023-03-08T15:46:41.354Z,98414.56
2023-03-08T15:49:08.441Z,98413.03
2023-03-08T15:51:36.465Z,98414.19
2023-03-08T15:54:05.178Z,98412.91
2023-03-08T15:56:31.599Z,98413.25
2023-03-08T15:58:58.047Z,98408.13
2023-03-08T16:01:26.667Z,98402.19
2023-03-08T16:03:54.617Z,98409.66
2023-03-08T16:06:21.171Z,98416.25
2023-03-08T16:08:47.605Z,98413.63
2023-03-08T16:11:16.658Z,98402.22
2023-03-08T16:13:43.110Z,98399.25
2023-03-08T16:16:09.722Z,98408.84
2023-03-08T16:18:36.796Z,98401.72
2023-03-08T16:21:08.967Z,98398.75
2023-03-08T16:23:36.293Z,98399.59
2023-03-08T16:26:15.145Z,98401.81
2023-03-08T16:28:44.041Z,98417.66
2023-03-08T16:31:10.575Z,98427.00
2023-03-08T16:33:37.516Z,98416.66
2023-03-08T16:36:04.223Z,98418.88
2023-03-08T16:38:30.719Z,98423.84
2023-03-08T16:41:11.468Z,98428.84
2023-03-08T16:43:46.426Z,98426.91
2023-03-08T16:46:19.284Z,98406.72
2023-03-08T16:48:49.128Z,98416.31
2023-03-08T16:51:17.480Z,98416.66
2023-03-08T16:53:43.952Z,98408.22
2023-03-08T16:56:18.006Z,98407.72
2023-03-08T16:58:44.434Z,98402.25
2023-03-08T17:01:15.411Z,98402.25
2023-03-08T17:03:42.222Z,98412.63
2023-03-08T17:06:11.700Z,98414.19
2023-03-08T17:08:38.248Z,98421.44
2023-03-08T17:11:06.078Z,98418.38
2023-03-08T17:13:33.547Z,98417.56
2023-03-08T17:15:59.997Z,98416.50
2023-03-08T17:18:26.594Z,98415.19
2023-03-08T17:20:53.084Z,98410.28
2023-03-08T17:23:20.161Z,98418.50
2023-03-08T17:25:46.820Z,98413.53
2023-03-08T17:28:14.312Z,98420.06
2023-03-08T17:30:41.407Z,98423.28
2023-03-08T17:33:09.050Z,98417.56
2023-03-08T17:35:40.209Z,98417.31
2023-03-08T17:38:06.716Z,98419.47
2023-03-08T17:40:33.151Z,98426.00
2023-03-08T17:43:02.344Z,98415.31
2023-03-08T17:45:29.293Z,98425.41
2023-03-08T17:48:01.143Z,98430.06
2023-03-08T17:50:29.807Z,98427.34
2023-03-08T17:52:57.297Z,98425.91
2023-03-08T17:55:24.416Z,98432.47
2023-03-08T17:57:50.852Z,98428.91
2023-03-08T18:00:17.623Z,98424.28
2023-03-08T18:02:44.120Z,98425.34
2023-03-08T18:05:11.083Z,98428.06
2023-03-08T18:07:39.861Z,98438.16
2023-03-08T18:10:10.818Z,98425.84
2023-03-08T18:12:37.227Z,98417.03
2023-03-08T18:15:04.380Z,98419.78
2023-03-08T18:17:30.833Z,98428.97
2023-03-08T18:19:57.258Z,98435.47
2023-03-08T18:22:23.765Z,98441.44
2023-03-08T18:24:50.181Z,98443.09
2023-03-08T18:27:16.776Z,98441.44
2023-03-08T18:29:43.708Z,98432.19
2023-03-08T18:32:10.332Z,98439.28
2023-03-08T18:34:38.624Z,98429.44
2023-03-08T18:37:05.180Z,98422.31
2023-03-08T18:39:31.621Z,98423.38
2023-03-08T18:41:59.977Z,98421.72
2023-03-08T18:44:26.541Z,98427.19
2023-03-08T18:46:53.156Z,98435.63
2023-03-08T18:49:19.722Z,98436.47
2023-03-08T18:51:46.208Z,98444.91
2023-03-08T18:54:14.822Z,98445.72
2023-03-08T18:56:41.374Z,98439.44
2023-03-08T18:59:08.443Z,98445.72
2023-03-08T19:01:36.532Z,98444.06
2023-03-08T19:04:06.013Z,98448.47
2023-03-08T19:06:32.844Z,98445.72
2023-03-08T19:08:59.365Z,98451.69
2023-03-08T19:11:27.529Z,98459.25
2023-03-08T19:13:54.293Z,98466.41
2023-03-08T19:16:22.363Z,98444.56
2023-03-08T19:18:50.468Z,98435.78
2023-03-08T19:21:34.495Z,98438.72
2023-03-08T19:24:01.690Z,98441.69
2023-03-08T19:26:36.808Z,98434.31
2023-03-08T19:29:10.528Z,98439.59
2023-03-08T19:31:43.429Z,98442.88
2023-03-08T19:34:10.962Z,98439.94
2023-03-08T19:36:37.782Z,98447.28
2023-03-08T19:39:06.199Z,98441.81
2023-03-08T19:41:32.697Z,98436.97
2023-03-08T19:44:00.237Z,98433.13
2023-03-08T19:46:26.771Z,98434.81
2023-03-08T19:48:53.128Z,98426.38
2023-03-08T19:51:20.381Z,98429.69
2023-03-08T19:53:46.800Z,98437.66
2023-03-08T19:56:16.017Z,98434.91
2023-03-08T19:58:43.018Z,98443.09
2023-03-08T20:01:11.702Z,98432.97
2023-03-08T20:03:38.468Z,98431.09
2023-03-08T20:06:05.633Z,98420.75
2023-03-08T20:08:32.417Z,98425.41
2023-03-08T20:10:58.820Z,98418.28
2023-03-08T20:13:25.514Z,98419.09
2023-03-08T20:15:51.958Z,98418.28
2023-03-08T20:18:18.344Z,98413.63
2023-03-08T20:20:45.072Z,98422.44
2023-03-08T20:23:11.496Z,98424.91
2023-03-08T20:25:38.207Z,98429.88
2023-03-08T20:28:04.680Z,98437.81
2023-03-08T20:30:31.236Z,98448.47
2023-03-08T20:32:57.738Z,98433.53
2023-03-08T20:35:24.345Z,98435.19
2023-03-08T20:37:50.834Z,98433.03
2023-03-08T20:40:18.076Z,98425.69
2023-03-08T20:42:44.566Z,98415.59
2023-03-08T20:45:11.529Z,98421.63
2023-03-08T20:47:37.970Z,98417.81
2023-03-08T20:50:04.837Z,98416.75
2023-03-08T20:52:31.216Z,98421.13
2023-03-08T20:54:57.591Z,98413.75
2023-03-08T20:57:24.174Z,98406.41
2023-03-08T20:59:50.592Z,98404.25
2023-03-08T21:02:17.312Z,98399.59
2023-03-08T21:04:43.710Z,98399.38
2023-03-08T21:07:10.146Z,98388.22
2023-03-08T21:09:36.589Z,98382.75
2023-03-08T21:12:04.382Z,98381.06
2023-03-08T21:14:31.221Z,98394.72
2023-03-08T21:16:57.656Z,98389.50
2023-03-08T21:19:24.079Z,98383.22
2023-03-08T21:21:51.312Z,98387.88
2023-03-08T21:24:22.814Z,98382.41
2023-03-08T21:26:50.034Z,98375.28
2023-03-08T21:29:19.178Z,98375.28
2023-03-08T21:31:48.512Z,98377.75
2023-03-08T21:34:15.518Z,98376.13
2023-03-08T21:36:42.252Z,98376.94
2023-03-08T21:39:09.101Z,98367.66
2023-03-08T21:41:38.386Z,98356.50
2023-03-08T21:44:11.677Z,98348.88
2023-03-08T21:46:39.676Z,98340.66
2023-03-08T21:49:07.406Z,98339.84
2023-03-08T21:51:34.662Z,98341.50
2023-03-08T21:54:01.388Z,98351.59
2023-03-08T21:56:27.965Z,98355.75
2023-03-08T21:58:55.266Z,98337.69
2023-03-08T22:01:24.357Z,98352.53
2023-03-08T22:03:51.227Z,98346.00
2023-03-08T22:06:18.492Z,98339.44
2023-03-08T22:08:45.499Z,98339.44
2023-03-08T22:11:12.386Z,98328.25
2023-03-08T22:13:38.840Z,98319.78
2023-03-08T22:16:05.753Z,98317.66
2023-03-08T22:18:32.340Z,98313.84
2023-03-08T22:20:59.861Z,98310.03
2023-03-08T22:23:27.075Z,98309.19
2023-03-08T22:25:54.203Z,98313.84
2023-03-08T22:28:21.352Z,98308.38
2023-03-08T22:30:48.182Z,98308.38
2023-03-08T22:33:14.809Z,98307.56
2023-03-08T22:35:45.675Z,98305.38
2023-03-08T22:38:12.206Z,98307.28
2023-03-08T22:40:42.534Z,98311.69
2023-03-08T22:43:09.873Z,98317.66
2023-03-08T22:45:36.559Z,98320.94
2023-03-08T22:48:04.477Z,98306.22
2023-03-08T22:50:31.004Z,98296.97
2023-03-08T22:52:57.436Z,98292.31
2023-03-08T22:55:23.893Z,98300.84
2023-03-08T22:57:50.313Z,98291.53
2023-03-08T23:00:16.961Z,98301.41
2023-03-08T23:02:45.501Z,98294.28
2023-03-08T23:05:13.600Z,98293.47
2023-03-08T23:07:39.962Z,98285.00
2023-03-08T23:10:07.466Z,98279.53
2023-03-08T23:12:33.987Z,98277.41
2023-03-08T23:15:00.556Z,98266.19
2023-03-08T23:17:26.983Z,98267.03
2023-03-08T23:19:53.524Z,98262.97
2023-03-08T23:22:20.079Z,98260.81
2023-03-08T23:24:46.508Z,98257.81
2023-03-08T23:27:12.984Z,98248.03
2023-03-08T23:29:39.466Z,98243.41
2023-03-08T23:32:06.124Z,98237.94
2023-03-08T23:34:33.271Z,98248.88
2023-03-08T23:37:03.653Z,98255.41
2023-03-08T23:39:31.748Z,98244.75
2023-03-08T23:41:58.167Z,98251.88
2023-03-08T23:44:24.564Z,98239.28
2023-03-08T23:46:51.004Z,98231.63
2023-03-08T23:49:17.571Z,98237.69
2023-03-08T23:51:44.674Z,98239.91
2023-03-08T23:54:11.694Z,98237.72
2023-03-08T23:56:40.222Z,98241.06
2023-03-08T23:59:19.162Z,98244.63
